Time;durP1;ratioP1;P1;durP2;ratioP2;P2;SDS_P1;SDS_P2;PMS_P1;PMS_P2;Temp;Humidity;BMP_temperature;BMP_pressure;BME280_temperature;BME280_humidity;BME280_pressure;Samples;Min_cycle;Max_cycle;Signal;HPM_P1;HPM_P2
2023/08/24 00:00:26;;;;;;;14.45;13.05;;;25.30;54.30;;;;;;5045900;27;114369;-79
2023/08/24 00:02:53;;;;;;;15.73;14.13;;;25.20;54.40;;;;;;5045246;27;114046;-78
2023/08/24 00:05:21;;;;;;;15.73;14.02;;;25.20;54.20;;;;;;5045203;27;115915;-78
2023/08/24 00:07:48;;;;;;;15.95;13.65;;;25.20;54.20;;;;;;5045731;27;115585;-78
2023/08/24 00:10:16;;;;;;;16.83;14.02;;;25.20;54.10;;;;;;5046519;27;114162;-79
2023/08/24 00:12:43;;;;;;;14.02;12.73;;;25.20;54.20;;;;;;5045222;27;114489;-79
2023/08/24 00:15:10;;;;;;;15.27;13.68;;;25.20;54.40;;;;;;5043980;27;115046;-77
2023/08/24 00:17:37;;;;;;;15.02;13.43;;;25.20;54.10;;;;;;5010930;27;117344;-77
2023/08/24 00:20:10;;;;;;;14.57;13.18;;;25.10;54.20;;;;;;5045075;27;114196;-78
2023/08/24 00:22:38;;;;;;;15.73;14.00;;;25.20;54.10;;;;;;5046292;27;114040;-78
2023/08/24 00:25:08;;;;;;;14.55;13.15;;;25.10;53.90;;;;;;5044643;27;115160;-77
2023/08/24 00:27:35;;;;;;;15.75;14.23;;;25.20;54.10;;;;;;5045417;27;115040;-79
2023/08/24 00:30:04;;;;;;;14.23;12.82;;;25.10;53.20;;;;;;5048241;27;114196;-78
2023/08/24 00:32:34;;;;;;;13.60;12.30;;;25.10;53.80;;;;;;5049636;27;114313;-79
2023/08/24 00:35:05;;;;;;;17.20;15.40;;;25.10;54.20;;;;;;5047456;27;116466;-79
2023/08/24 00:37:33;;;;;;;15.27;13.55;;;25.10;52.90;;;;;;5030160;27;116036;-78
2023/08/24 00:40:08;;;;;;;13.95;12.60;;;25.00;53.80;;;;;;5047995;27;114366;-78
2023/08/24 00:42:43;;;;;;;14.77;13.25;;;25.00;54.10;;;;;;5048600;27;114080;-79
2023/08/24 00:45:11;;;;;;;19.33;17.08;;;25.00;53.30;;;;;;5030579;27;115084;-79
2023/08/24 00:47:43;;;;;;;17.98;16.08;;;24.90;52.10;;;;;;5047431;27;114648;-80
2023/08/24 00:50:10;;;;;;;15.95;12.52;;;24.90;53.20;;;;;;5048798;27;114298;-78
2023/08/24 00:52:41;;;;;;;16.42;13.68;;;24.80;54.20;;;;;;5047814;27;114421;-79
2023/08/24 00:55:08;;;;;;;13.55;12.25;;;24.80;53.50;;;;;;5046871;27;116399;-78
2023/08/24 00:57:36;;;;;;;16.00;12.90;;;24.80;54.40;;;;;;5048350;27;114904;-78
2023/08/24 01:00:05;;;;;;;14.15;11.45;;;24.80;54.20;;;;;;5048013;27;114543;-77
2023/08/24 01:02:33;;;;;;;14.35;11.70;;;24.80;54.20;;;;;;5048875;27;114243;-78
2023/08/24 01:05:01;;;;;;;13.88;12.48;;;24.90;54.20;;;;;;5048544;27;114880;-78
2023/08/24 01:07:28;;;;;;;16.95;12.48;;;24.90;54.20;;;;;;5048354;27;115771;-79
2023/08/24 01:09:55;;;;;;;15.48;12.93;;;24.90;53.40;;;;;;5047741;27;114467;-78
2023/08/24 01:12:32;;;;;;;14.27;11.82;;;24.90;53.80;;;;;;5049115;27;114407;-79
2023/08/24 01:15:37;;;;;;;16.30;14.10;;;24.80;53.70;;;;;;5046546;27;114941;-79
2023/08/24 01:18:06;;;;;;;14.00;12.50;;;24.90;53.40;;;;;;5046383;27;114601;-78
2023/08/24 01:20:34;;;;;;;12.95;11.65;;;24.80;53.40;;;;;;5031183;27;114030;-77
2023/08/24 01:23:44;;;;;;;14.70;12.07;;;24.80;53.90;;;;;;5031000;27;114455;-79
2023/08/24 01:26:18;;;;;;;15.70;13.38;;;24.80;53.40;;;;;;5017520;27;115192;-79
2023/08/24 01:28:45;;;;;;;;;;;24.80;53.00;;;;;;5030309;27;114850;-79
2023/08/24 01:31:16;;;;;;;13.25;11.07;;;24.70;53.50;;;;;;5047382;27;114133;-78
2023/08/24 01:33:46;;;;;;;11.50;10.40;;;24.70;54.30;;;;;;5031254;27;114376;-79
2023/08/24 01:36:16;;;;;;;13.93;11.02;;;24.80;54.00;;;;;;5046329;27;114858;-79
2023/08/24 01:38:44;;;;;;;11.75;10.52;;;24.80;53.70;;;;;;5045011;27;114582;-78
2023/08/24 01:41:19;;;;;;;12.68;11.32;;;24.80;54.00;;;;;;5046645;27;114298;-79
2023/08/24 01:43:51;;;;;;;13.70;11.52;;;24.80;53.90;;;;;;5031470;27;114204;-79
2023/08/24 01:46:19;;;;;;;12.63;11.20;;;24.80;53.40;;;;;;5046562;27;114925;-78
2023/08/24 01:48:46;;;;;;;13.13;11.40;;;24.80;53.40;;;;;;5029758;27;114931;-79
2023/08/24 01:51:14;;;;;;;11.57;10.48;;;24.80;53.50;;;;;;5013815;27;114445;-78
2023/08/24 01:53:41;;;;;;;12.02;10.82;;;24.80;53.60;;;;;;5047189;27;114255;-78
2023/08/24 01:56:46;;;;;;;13.43;11.05;;;24.80;53.40;;;;;;5046009;27;114841;-78
2023/08/24 02:00:07;;;;;;;13.73;12.05;;;24.90;53.10;;;;;;5004301;28;115923;-79
2023/08/24 02:02:39;;;;;;;14.52;10.70;;;24.80;52.80;;;;;;5005674;28;114437;-78
2023/08/24 02:05:08;;;;;;;13.55;12.15;;;24.80;53.10;;;;;;4988952;28;114675;-79
2023/08/24 02:07:35;;;;;;;14.32;10.63;;;24.80;52.30;;;;;;4987355;28;115285;-79
2023/08/24 02:10:03;;;;;;;12.23;9.57;;;24.80;53.00;;;;;;5004047;28;116449;-78
2023/08/24 02:12:30;;;;;;;12.80;10.25;;;24.70;53.30;;;;;;5005740;28;114421;-78
2023/08/24 02:14:57;;;;;;;13.45;10.50;;;24.80;53.00;;;;;;4988666;28;114418;-79
2023/08/24 02:17:25;;;;;;;11.20;9.98;;;24.80;53.20;;;;;;5004013;28;117253;-78
2023/08/24 02:19:52;;;;;;;10.73;9.27;;;24.80;53.10;;;;;;5004370;28;114689;-79
2023/08/24 02:22:19;;;;;;;13.63;10.02;;;24.80;53.40;;;;;;5005411;28;114204;-78
2023/08/24 02:24:46;;;;;;;12.35;9.98;;;24.80;52.90;;;;;;5020196;28;114298;-78
2023/08/24 02:27:13;;;;;;;12.50;9.48;;;24.80;53.00;;;;;;4991282;28;114950;-78
2023/08/24 02:29:40;;;;;;;14.85;9.90;;;24.80;52.50;;;;;;5024211;28;115111;-78
2023/08/24 02:32:07;;;;;;;14.00;9.85;;;24.70;52.90;;;;;;5024873;28;114146;-78
2023/08/24 02:34:34;;;;;;;12.02;10.05;;;24.70;53.00;;;;;;5008487;28;114593;-79
2023/08/24 02:37:01;;;;;;;11.30;9.40;;;24.70;53.10;;;;;;5028391;27;115574;-78
2023/08/24 02:39:28;;;;;;;11.98;9.52;;;24.70;53.00;;;;;;5046505;27;114512;-79
2023/08/24 02:41:56;;;;;;;9.75;8.70;;;24.70;52.80;;;;;;5047177;27;114404;-79
2023/08/24 02:44:23;;;;;;;13.30;9.50;;;24.70;52.90;;;;;;5046422;27;114400;-79
2023/08/24 02:46:50;;;;;;;11.13;9.65;;;24.70;52.10;;;;;;5046570;27;115120;-79
2023/08/24 02:49:18;;;;;;;15.80;10.77;;;24.70;52.70;;;;;;5046725;27;114601;-78
2023/08/24 02:51:45;;;;;;;11.88;9.15;;;24.60;51.90;;;;;;5046232;27;114063;-77
2023/08/24 02:54:12;;;;;;;15.50;9.23;;;24.60;52.70;;;;;;5046290;27;114227;-79
2023/08/24 02:56:39;;;;;;;12.00;9.27;;;24.60;52.60;;;;;;5044800;27;114946;-77
2023/08/24 02:59:06;;;;;;;12.85;9.75;;;24.60;52.80;;;;;;5045074;27;114681;-78
2023/08/24 03:01:33;;;;;;;10.35;8.77;;;24.60;52.30;;;;;;5047330;27;114224;-78
2023/08/24 03:04:00;;;;;;;12.60;9.85;;;24.60;52.70;;;;;;5047363;27;114272;-77
2023/08/24 03:06:27;;;;;;;10.60;9.07;;;24.60;52.10;;;;;;5046133;27;115400;-78
2023/08/24 03:08:59;;;;;;;10.15;9.15;;;24.60;52.60;;;;;;5045012;27;114578;-77
2023/08/24 03:11:27;;;;;;;10.88;8.40;;;24.60;52.10;;;;;;5045690;27;114073;-78
2023/08/24 03:13:54;;;;;;;14.45;10.32;;;24.60;52.70;;;;;;5029531;27;114248;-77
2023/08/24 03:16:21;;;;;;;9.90;8.90;;;24.50;51.80;;;;;;5046189;27;114797;-79
2023/08/24 03:18:49;;;;;;;11.65;8.63;;;24.50;52.40;;;;;;5045724;27;117071;-77
2023/08/24 03:21:17;;;;;;;10.70;9.27;;;24.50;52.50;;;;;;5028762;27;114463;-77
2023/08/24 03:23:44;;;;;;;10.93;8.43;;;24.50;52.40;;;;;;5045524;27;114276;-79
2023/08/24 03:26:11;;;;;;;13.60;10.07;;;24.50;52.60;;;;;;5045962;27;115351;-79
2023/08/24 03:28:38;;;;;;;11.07;9.02;;;24.50;51.40;;;;;;5046033;27;114648;-78
2023/08/24 03:31:06;;;;;;;11.23;8.55;;;24.40;52.40;;;;;;5046645;27;114318;-79
2023/08/24 03:33:34;;;;;;;9.93;8.18;;;24.40;52.50;;;;;;5045403;27;114297;-78
2023/08/24 03:36:03;;;;;;;13.45;8.65;;;24.40;52.60;;;;;;5044241;27;114933;-78
2023/08/24 03:38:30;;;;;;;16.45;9.60;;;24.40;52.60;;;;;;5044428;27;114930;-77
2023/08/24 03:41:03;;;;;;;14.55;9.90;;;24.40;52.50;;;;;;5046570;27;114086;-78
2023/08/24 03:43:33;;;;;;;13.00;10.02;;;24.50;52.10;;;;;;5045659;27;114036;-79
2023/08/24 03:46:00;;;;;;;11.57;10.30;;;24.40;52.20;;;;;;5010791;27;115147;-79
2023/08/24 03:48:27;;;;;;;12.13;9.88;;;24.30;51.80;;;;;;5044485;27;114636;-78
2023/08/24 03:50:55;;;;;;;12.45;9.20;;;24.30;52.10;;;;;;5046575;27;114283;-78
2023/08/24 03:53:23;;;;;;;12.02;9.38;;;24.40;52.40;;;;;;5045420;27;114352;-78
2023/08/24 03:55:50;;;;;;;13.40;9.68;;;24.40;52.40;;;;;;5027797;27;115426;-78
2023/08/24 03:58:19;;;;;;;10.88;9.77;;;24.40;52.30;;;;;;5043907;27;114783;-78
2023/08/24 04:00:47;;;;;;;11.80;9.40;;;24.40;52.00;;;;;;5045369;27;114331;-78
2023/08/24 04:03:14;;;;;;;11.48;9.75;;;24.40;51.90;;;;;;5045844;27;114482;-78
2023/08/24 04:05:42;;;;;;;10.20;8.63;;;24.30;51.30;;;;;;5011011;27;114835;-77
2023/08/24 04:08:09;;;;;;;11.23;9.20;;;24.30;52.10;;;;;;5027404;27;114656;-78
2023/08/24 04:10:37;;;;;;;9.95;8.65;;;24.40;52.00;;;;;;5044527;27;114357;-80
2023/08/24 04:13:04;;;;;;;12.60;8.68;;;24.40;52.00;;;;;;5044989;27;114335;-78
2023/08/24 04:15:31;;;;;;;11.25;8.77;;;24.40;51.60;;;;;;5045306;27;114939;-78
2023/08/24 04:17:58;;;;;;;12.15;8.52;;;24.50;51.80;;;;;;5027550;27;114679;-77
2023/08/24 04:20:25;;;;;;;8.82;7.75;;;24.60;51.60;;;;;;5044900;27;114259;-77
2023/08/24 04:22:53;;;;;;;9.93;8.65;;;24.70;51.60;;;;;;5028373;27;114306;-77
2023/08/24 04:25:20;;;;;;;10.00;8.23;;;24.80;51.30;;;;;;5044019;27;115001;-77
2023/08/24 04:27:47;;;;;;;10.75;7.93;;;24.80;51.20;;;;;;5044354;27;114701;-78
2023/08/24 04:30:15;;;;;;;9.80;8.13;;;24.90;50.80;;;;;;5045671;27;114111;-78
2023/08/24 04:32:42;;;;;;;9.18;7.72;;;25.00;50.70;;;;;;5046080;27;114303;-79
2023/08/24 04:35:10;;;;;;;8.57;7.35;;;25.10;50.50;;;;;;5044611;27;114965;-78
2023/08/24 04:37:38;;;;;;;12.32;7.97;;;25.20;50.50;;;;;;5042749;27;116550;-78
2023/08/24 04:40:07;;;;;;;9.35;7.68;;;25.30;50.10;;;;;;5045596;27;114299;-77
2023/08/24 04:42:34;;;;;;;8.60;7.63;;;25.30;49.90;;;;;;5044629;27;114095;-78
2023/08/24 04:45:01;;;;;;;9.77;8.45;;;25.30;50.00;;;;;;5044699;27;114922;-79
2023/08/24 04:47:28;;;;;;;9.15;7.50;;;25.40;49.40;;;;;;5027161;27;114533;-77
2023/08/24 04:49:56;;;;;;;9.68;7.78;;;25.50;49.50;;;;;;5044637;27;114173;-78
2023/08/24 04:52:23;;;;;;;9.23;7.80;;;25.60;49.20;;;;;;5046215;27;114430;-79
2023/08/24 04:54:50;;;;;;;12.60;10.48;;;25.60;49.00;;;;;;5044534;27;116047;-77
2023/08/24 04:57:18;;;;;;;11.13;7.60;;;25.70;47.70;;;;;;5043433;27;118150;-78
2023/08/24 04:59:44;;;;;;;10.85;7.13;;;25.70;48.70;;;;;;5045148;27;114238;-77
2023/08/24 05:02:11;;;;;;;11.38;7.60;;;25.70;48.80;;;;;;5045119;27;114477;-79
2023/08/24 05:04:39;;;;;;;11.80;8.13;;;25.80;48.70;;;;;;5043230;27;117172;-79
2023/08/24 05:07:06;;;;;;;15.45;9.48;;;25.80;48.20;;;;;;5044664;27;114680;-77
2023/08/24 05:09:33;;;;;;;19.40;11.30;;;25.90;48.00;;;;;;5045404;27;114151;-80
2023/08/24 05:12:00;;;;;;;13.65;9.68;;;25.90;47.10;;;;;;5044400;27;114350;-77
2023/08/24 05:14:27;;;;;;;13.73;9.32;;;25.90;47.50;;;;;;5045638;27;114830;-77
2023/08/24 05:16:54;;;;;;;15.25;10.20;;;26.00;47.40;;;;;;5048119;27;115820;-79
2023/08/24 05:19:21;;;;;;;15.93;10.23;;;25.90;47.20;;;;;;5048852;27;114391;-79
2023/08/24 05:21:48;;;;;;;19.88;11.18;;;26.00;47.00;;;;;;5048755;27;114313;-78
2023/08/24 05:24:15;;;;;;;15.05;9.98;;;26.00;46.80;;;;;;5047245;27;114392;-78
2023/08/24 05:26:42;;;;;;;17.92;11.05;;;26.10;47.30;;;;;;5046836;27;114706;-78
2023/08/24 05:29:09;;;;;;;21.40;12.38;;;26.10;46.80;;;;;;5048775;27;114512;-78
2023/08/24 05:31:36;;;;;;;25.27;13.93;;;26.10;46.40;;;;;;5048562;27;114344;-79
2023/08/24 05:34:03;;;;;;;24.73;13.18;;;26.20;46.20;;;;;;5047792;27;115155;-79
2023/08/24 05:36:30;;;;;;;24.17;13.40;;;26.20;46.30;;;;;;5046987;27;114659;-79
2023/08/24 05:38:57;;;;;;;23.80;13.77;;;26.20;46.40;;;;;;5048518;27;114348;-78
2023/08/24 05:41:33;;;;;;;19.38;13.30;;;26.20;46.60;;;;;;5047828;27;114417;-78
2023/08/24 05:44:00;;;;;;;19.60;11.95;;;26.20;46.70;;;;;;5046330;27;115257;-79
2023/08/24 05:46:28;;;;;;;15.68;9.55;;;26.10;46.60;;;;;;5047654;27;114861;-77
2023/08/24 05:48:58;;;;;;;16.77;11.45;;;26.20;47.40;;;;;;5047902;27;114369;-78
2023/08/24 05:51:25;;;;;;;15.23;11.20;;;26.40;46.90;;;;;;5048294;27;114085;-78
2023/08/24 05:53:55;;;;;;;14.38;10.07;;;26.50;46.50;;;;;;5046230;27;114827;-78
2023/08/24 05:56:22;;;;;;;15.05;10.30;;;26.50;46.70;;;;;;5046151;27;117609;-78
2023/08/24 05:58:49;;;;;;;13.75;9.88;;;26.50;46.50;;;;;;5048050;27;114373;-79
2023/08/24 06:01:17;;;;;;;17.40;10.23;;;26.50;46.50;;;;;;5047857;27;114450;-79
2023/08/24 06:03:47;;;;;;;16.50;10.43;;;26.60;46.50;;;;;;5047366;27;115598;-77
2023/08/24 06:06:14;;;;;;;16.85;11.95;;;26.60;46.20;;;;;;5047364;27;114612;-79
2023/08/24 06:08:41;;;;;;;19.70;13.13;;;26.60;46.10;;;;;;5047849;27;114209;-77
2023/08/24 06:11:08;;;;;;;19.80;12.77;;;26.70;45.90;;;;;;5048351;27;114167;-79
2023/08/24 06:13:35;;;;;;;20.30;12.57;;;26.60;46.00;;;;;;5046768;27;114980;-77
2023/08/24 06:16:02;;;;;;;21.10;12.50;;;26.60;46.50;;;;;;5047013;27;115259;-76
2023/08/24 06:18:31;;;;;;;21.85;12.98;;;26.60;46.30;;;;;;5048045;27;114035;-76
2023/08/24 06:20:58;;;;;;;20.05;11.77;;;26.60;46.30;;;;;;5047595;27;114372;-78
2023/08/24 06:23:25;;;;;;;19.90;10.75;;;26.60;46.40;;;;;;5045499;27;114912;-78
2023/08/24 06:25:52;;;;;;;17.20;11.38;;;26.80;46.20;;;;;;5046297;27;114622;-77
2023/08/24 06:28:19;;;;;;;16.95;10.25;;;26.80;46.10;;;;;;5047801;27;114167;-78
2023/08/24 06:30:47;;;;;;;19.23;12.35;;;26.90;45.90;;;;;;5047045;27;114519;-78
2023/08/24 06:33:16;;;;;;;19.17;12.25;;;26.90;45.70;;;;;;5045660;27;115102;-78
2023/08/24 06:35:43;;;;;;;20.40;13.35;;;27.00;45.50;;;;;;5046750;27;114684;-78
2023/08/24 06:38:11;;;;;;;18.90;12.00;;;26.90;45.60;;;;;;5045832;27;114307;-78
2023/08/24 06:40:38;;;;;;;17.67;12.13;;;26.90;45.80;;;;;;5047508;27;114262;-79
2023/08/24 06:43:05;;;;;;;29.98;15.10;;;26.90;46.10;;;;;;5045332;27;114936;-78
2023/08/24 06:45:32;;;;;;;32.95;18.08;;;27.00;45.70;;;;;;5045312;27;115137;-79
2023/08/24 06:48:00;;;;;;;34.83;18.25;;;27.10;45.60;;;;;;5047529;27;114059;-76
2023/08/24 06:50:27;;;;;;;36.28;20.27;;;27.20;45.30;;;;;;5047577;27;114157;-78
2023/08/24 06:52:54;;;;;;;36.42;20.40;;;27.10;45.20;;;;;;5046353;27;114979;-77
2023/08/24 06:55:21;;;;;;;34.03;19.83;;;27.10;45.10;;;;;;5046808;27;114762;-78
2023/08/24 06:57:50;;;;;;;35.10;21.42;;;27.00;45.40;;;;;;5046214;27;114130;-78
2023/08/24 07:00:19;;;;;;;34.20;20.73;;;27.00;45.60;;;;;;5046314;27;114249;-77
2023/08/24 07:02:50;;;;;;;29.33;18.92;;;27.00;45.30;;;;;;5044669;27;115947;-78
2023/08/24 07:05:20;;;;;;;30.40;18.73;;;27.00;44.80;;;;;;5046034;27;114543;-77
2023/08/24 07:07:49;;;;;;;24.50;16.80;;;27.00;45.10;;;;;;5047205;27;113991;-79
2023/08/24 07:10:17;;;;;;;24.75;16.20;;;26.90;44.90;;;;;;5047203;27;114304;-77
2023/08/24 07:12:45;;;;;;;27.30;15.82;;;27.00;44.80;;;;;;5045119;27;114936;-76
2023/08/24 07:15:12;;;;;;;27.70;15.15;;;27.00;44.30;;;;;;5044799;27;114629;-78
2023/08/24 07:17:39;;;;;;;28.63;15.73;;;27.00;44.70;;;;;;5045619;27;114243;-77
2023/08/24 07:20:11;;;;;;;21.13;12.05;;;27.00;44.90;;;;;;5047064;27;114348;-78
2023/08/24 07:22:40;;;;;;;20.63;11.38;;;27.00;44.50;;;;;;5044934;27;114826;-78
2023/08/24 07:25:08;;;;;;;21.85;11.85;;;27.00;44.30;;;;;;5045739;27;114712;-78
2023/08/24 07:27:35;;;;;;;18.05;11.45;;;27.00;44.80;;;;;;5045145;27;114171;-78
2023/08/24 07:30:05;;;;;;;17.60;9.20;;;27.00;44.30;;;;;;5046413;27;114345;-78
2023/08/24 07:32:55;;;;;;;16.88;9.85;;;27.10;44.10;;;;;;5044800;27;115377;-77
2023/08/24 07:35:24;;;;;;;21.10;12.48;;;27.20;43.90;;;;;;5045849;27;114565;-79
2023/08/24 07:37:51;;;;;;;12.23;7.45;;;27.20;43.00;;;;;;5043712;27;114380;-78
2023/08/24 07:40:19;;;;;;;12.15;7.38;;;27.20;43.00;;;;;;5046175;27;114247;-78
2023/08/24 07:42:52;;;;;;;10.45;6.82;;;27.30;42.80;;;;;;5045857;27;114839;-78
2023/08/24 07:45:20;;;;;;;11.02;7.53;;;27.30;43.00;;;;;;5027843;27;117214;-77
2023/08/24 07:47:47;;;;;;;8.93;6.40;;;27.30;42.80;;;;;;5046605;27;114234;-78
2023/08/24 07:50:15;;;;;;;9.95;6.70;;;27.40;42.30;;;;;;5046236;27;114991;-78
2023/08/24 07:52:42;;;;;;;9.70;5.82;;;27.40;42.50;;;;;;5045167;27;115402;-77
2023/08/24 07:55:09;;;;;;;8.02;5.57;;;27.50;42.30;;;;;;5045645;27;114680;-78
2023/08/24 07:57:37;;;;;;;11.88;6.43;;;27.50;41.30;;;;;;5045021;27;114433;-78
2023/08/24 08:00:05;;;;;;;8.90;5.78;;;27.60;41.10;;;;;;5044976;27;114397;-78
2023/08/24 08:02:41;;;;;;;10.35;6.38;;;27.50;41.80;;;;;;5045419;27;114871;-78
2023/08/24 08:05:10;;;;;;;9.55;6.20;;;27.50;41.80;;;;;;5044221;27;114658;-78
2023/08/24 08:07:37;;;;;;;10.00;6.45;;;27.50;41.90;;;;;;5046416;27;114238;-78
2023/08/24 08:10:06;;;;;;;11.02;6.15;;;27.60;42.20;;;;;;5046603;27;114279;-77
2023/08/24 08:12:33;;;;;;;11.40;7.18;;;27.60;40.90;;;;;;5043907;27;115029;-78
2023/08/24 08:15:00;;;;;;;14.98;6.70;;;27.60;41.50;;;;;;5044098;27;114815;-79
2023/08/24 08:17:30;;;;;;;7.15;5.03;;;27.70;40.70;;;;;;5045437;27;114944;-77
2023/08/24 08:19:58;;;;;;;8.02;5.63;;;27.70;39.50;;;;;;5044506;27;114516;-78
2023/08/24 08:22:25;;;;;;;9.40;5.60;;;27.80;39.90;;;;;;5043912;27;116016;-77
2023/08/24 08:24:56;;;;;;;9.80;4.55;;;27.90;40.30;;;;;;5045090;27;114675;-79
2023/08/24 08:27:23;;;;;;;6.97;4.95;;;27.90;38.10;;;;;;5044584;27;114584;-79
2023/08/24 08:29:50;;;;;;;7.50;4.35;;;27.90;37.90;;;;;;5028200;27;114295;-78
2023/08/24 08:32:20;;;;;;;7.22;4.05;;;27.80;37.90;;;;;;5045067;27;115168;-78
2023/08/24 08:34:47;;;;;;;6.07;4.05;;;27.80;37.60;;;;;;5045357;27;114669;-77
2023/08/24 08:37:15;;;;;;;5.00;3.30;;;27.90;36.70;;;;;;5044046;27;114358;-78
2023/08/24 08:39:42;;;;;;;4.93;2.80;;;27.90;36.60;;;;;;5044549;27;114392;-79
2023/08/24 08:42:13;;;;;;;5.47;3.28;;;28.00;36.00;;;;;;5044565;27;115468;-78
2023/08/24 08:44:42;;;;;;;6.78;3.42;;;28.10;35.60;;;;;;5045138;27;114541;-78
2023/08/24 08:47:13;;;;;;;7.25;3.65;;;28.20;35.60;;;;;;5044653;27;114233;-78
2023/08/24 08:49:42;;;;;;;5.15;3.10;;;28.20;36.40;;;;;;5048559;27;114383;-79
2023/08/24 08:52:10;;;;;;;4.88;2.78;;;28.30;35.10;;;;;;5046972;27;114903;-78
2023/08/24 08:54:37;;;;;;;5.90;4.30;;;28.20;34.20;;;;;;5047011;27;114677;-79
2023/08/24 08:57:04;;;;;;;6.53;4.35;;;28.30;36.60;;;;;;5031500;27;114188;-79
2023/08/24 08:59:31;;;;;;;4.93;2.72;;;28.40;36.10;;;;;;5048368;27;114266;-78
2023/08/24 09:02:03;;;;;;;5.15;3.22;;;28.40;33.60;;;;;;5047165;27;115185;-79
2023/08/24 09:04:31;;;;;;;6.97;3.95;;;28.40;34.80;;;;;;5048466;27;114606;-79
2023/08/24 09:07:03;;;;;;;4.85;3.25;;;28.40;33.30;;;;;;5030441;27;114333;-77
2023/08/24 09:09:30;;;;;;;6.40;3.90;;;28.30;34.50;;;;;;5031810;27;114197;-78
2023/08/24 09:11:59;;;;;;;6.15;3.30;;;28.30;35.80;;;;;;5030155;27;119052;-76
2023/08/24 09:14:26;;;;;;;6.22;3.70;;;28.30;35.00;;;;;;5030139;27;114673;-76
2023/08/24 09:16:54;;;;;;;4.70;2.63;;;28.40;35.90;;;;;;5049266;27;114168;-78
2023/08/24 09:19:27;;;;;;;5.32;3.15;;;28.50;35.30;;;;;;5049172;27;114132;-77
2023/08/24 09:21:56;;;;;;;5.47;3.90;;;28.60;35.00;;;;;;5046867;27;114998;-78
2023/08/24 09:24:34;;;;;;;6.35;3.83;;;28.60;35.30;;;;;;5030086;27;115928;-79
2023/08/24 09:27:16;;;;;;;4.95;3.08;;;28.60;35.30;;;;;;5047648;27;114309;-80
2023/08/24 09:29:50;;;;;;;6.13;3.05;;;28.70;35.10;;;;;;5030937;27;114223;-78
2023/08/24 09:32:24;;;;;;;7.50;3.53;;;28.70;35.30;;;;;;5047591;27;115174;-78
2023/08/24 09:34:52;;;;;;;6.93;4.45;;;28.70;35.70;;;;;;5046335;27;115235;-79
2023/08/24 09:37:25;;;;;;;5.20;3.35;;;28.70;36.50;;;;;;5046968;27;114200;-78
2023/08/24 09:40:00;;;;;;;5.90;3.40;;;28.70;35.00;;;;;;5030710;27;114003;-78
2023/08/24 09:42:27;;;;;;;6.72;3.35;;;28.60;33.90;;;;;;5029376;27;116647;-79
2023/08/24 09:44:58;;;;;;;7.00;4.00;;;28.50;34.00;;;;;;5047403;27;114745;-78
2023/08/24 09:47:25;;;;;;;5.63;3.35;;;28.40;33.60;;;;;;5047549;27;114085;-77
2023/08/24 09:49:52;;;;;;;4.35;2.90;;;28.40;35.00;;;;;;5047463;27;114240;-78
2023/08/24 09:52:19;;;;;;;6.25;2.95;;;28.50;34.30;;;;;;5047441;27;114856;-78
2023/08/24 09:54:46;;;;;;;7.85;3.17;;;28.60;34.20;;;;;;5046154;27;115161;-78
2023/08/24 09:57:13;;;;;;;4.55;2.97;;;28.60;33.90;;;;;;5046673;27;114180;-77
2023/08/24 09:59:40;;;;;;;4.82;2.92;;;28.70;36.00;;;;;;5046264;27;114680;-77
2023/08/24 10:02:16;;;;;;;7.30;2.85;;;28.70;34.10;;;;;;5046203;27;114999;-78
2023/08/24 10:04:43;;;;;;;6.18;2.75;;;28.80;34.30;;;;;;5046175;27;114876;-77
2023/08/24 10:07:20;;;;;;;5.32;3.30;;;28.80;34.20;;;;;;5047000;27;114369;-79
2023/08/24 10:09:58;;;;;;;4.53;2.70;;;28.80;34.80;;;;;;5047031;27;114474;-78
2023/08/24 10:12:27;;;;;;;4.95;2.40;;;28.90;33.70;;;;;;5046140;27;115002;-79
2023/08/24 10:15:00;;;;;;;4.97;2.67;;;28.80;32.50;;;;;;5045922;27;115772;-79
2023/08/24 10:17:27;;;;;;;5.68;3.00;;;28.90;32.80;;;;;;5047108;27;114389;-79
2023/08/24 10:19:54;;;;;;;6.38;3.00;;;28.90;33.00;;;;;;5046660;27;114605;-77
2023/08/24 10:22:21;;;;;;;4.15;2.83;;;29.00;32.90;;;;;;5045238;27;115204;-78
2023/08/24 10:24:48;;;;;;;4.15;2.63;;;29.10;32.90;;;;;;5046816;27;114611;-78
2023/08/24 10:27:15;;;;;;;4.35;2.63;;;29.10;33.20;;;;;;5047607;27;114154;-79
2023/08/24 10:29:45;;;;;;;7.60;2.75;;;29.20;33.40;;;;;;5030041;27;114268;-78
2023/08/24 10:32:13;;;;;;;4.80;3.42;;;29.30;32.60;;;;;;5045451;27;114978;-76
2023/08/24 10:34:40;;;;;;;8.20;2.78;;;29.30;35.30;;;;;;5045633;27;114653;-79
2023/08/24 10:37:10;;;;;;;6.18;2.92;;;29.30;32.80;;;;;;5046946;27;114383;-78
2023/08/24 10:39:45;;;;;;;6.65;2.58;;;29.30;32.50;;;;;;5047902;27;114380;-79
2023/08/24 10:42:13;;;;;;;5.05;3.00;;;29.30;32.60;;;;;;5046007;27;115696;-77
2023/08/24 10:44:43;;;;;;;5.10;2.85;;;29.30;32.70;;;;;;5045349;27;116617;-77
2023/08/24 10:47:16;;;;;;;5.03;2.90;;;29.30;33.70;;;;;;5047138;27;114197;-78
2023/08/24 10:50:04;;;;;;;6.50;2.83;;;29.30;32.10;;;;;;5046386;27;114338;-78
2023/08/24 10:52:33;;;;;;;4.85;2.92;;;29.40;33.60;;;;;;5044759;27;116472;-78
2023/08/24 10:55:01;;;;;;;4.50;2.78;;;29.30;31.90;;;;;;5046671;27;114800;-78
2023/08/24 10:57:36;;;;;;;4.55;2.80;;;29.40;33.10;;;;;;5046585;27;114409;-78
2023/08/24 11:00:09;;;;;;;7.97;2.78;;;29.40;31.90;;;;;;5048205;27;114391;-77
2023/08/24 11:02:56;;;;;;;5.75;3.00;;;29.40;31.80;;;;;;5045396;27;117967;-78
2023/08/24 11:05:31;;;;;;;6.13;2.67;;;29.40;32.50;;;;;;5047476;27;114624;-78
2023/08/24 11:08:04;;;;;;;4.35;2.58;;;29.30;30.90;;;;;;5048219;27;114170;-79
2023/08/24 11:10:41;;;;;;;;;;;29.30;30.60;;;;;;5031140;27;114409;-78
2023/08/24 11:13:08;;;;;;;4.88;3.00;;;29.20;32.90;;;;;;5046754;27;114901;-78
2023/08/24 11:15:43;;;;;;;4.55;2.95;;;29.10;31.80;;;;;;5045484;27;114676;-78
2023/08/24 11:18:19;;;;;;;4.50;2.88;;;29.00;32.80;;;;;;5047810;27;114291;-78
2023/08/24 11:21:04;;;;;;;5.53;2.90;;;29.00;31.60;;;;;;5047293;27;114241;-78
2023/08/24 11:23:32;;;;;;;3.87;2.60;;;29.10;33.40;;;;;;5046770;27;114877;-78
2023/08/24 11:25:59;;;;;;;4.65;2.53;;;29.00;31.80;;;;;;5046437;27;115138;-78
2023/08/24 11:28:27;;;;;;;4.75;2.72;;;29.10;31.60;;;;;;5047840;27;114520;-77
2023/08/24 11:30:55;;;;;;;5.80;2.80;;;29.10;31.10;;;;;;5045656;27;114637;-78
2023/08/24 11:33:33;;;;;;;5.38;3.15;;;29.00;30.90;;;;;;5046277;27;115180;-78
2023/08/24 11:36:01;;;;;;;4.65;2.78;;;29.00;31.20;;;;;;5028442;27;115108;-78
2023/08/24 11:38:39;;;;;;;5.05;3.00;;;29.00;32.30;;;;;;5044639;27;114453;-78
2023/08/24 11:41:18;;;;;;;5.25;3.10;;;29.10;31.20;;;;;;5045437;27;114218;-78
2023/08/24 11:43:48;;;;;;;5.57;2.90;;;29.10;32.30;;;;;;5045644;27;115976;-78
2023/08/24 11:46:18;;;;;;;6.00;2.92;;;29.10;30.90;;;;;;5045693;27;114904;-77
2023/08/24 11:48:45;;;;;;;5.07;3.25;;;29.10;31.40;;;;;;5046693;27;114297;-79
2023/08/24 11:51:12;;;;;;;4.63;3.05;;;29.10;31.60;;;;;;5045261;27;114453;-78
2023/08/24 11:53:44;;;;;;;7.70;3.00;;;29.20;33.30;;;;;;5045619;27;114865;-78
2023/08/24 11:56:12;;;;;;;5.88;3.08;;;29.20;32.20;;;;;;5045668;27;114588;-77
2023/08/24 11:58:40;;;;;;;5.10;3.03;;;29.20;33.40;;;;;;5028812;27;114269;-79
2023/08/24 12:01:13;;;;;;;6.05;3.10;;;29.30;31.00;;;;;;5045623;27;114262;-78
2023/08/24 12:03:41;;;;;;;;;;;29.30;34.20;;;;;;5044745;27;114979;-78
2023/08/24 12:06:15;;;;;;;4.45;2.90;;;29.20;33.60;;;;;;5046679;27;114739;-78
2023/08/24 12:08:44;;;;;;;4.25;2.78;;;29.20;32.40;;;;;;5045590;27;114362;-78
2023/08/24 12:11:12;;;;;;;5.28;3.08;;;29.20;31.90;;;;;;5028479;27;114463;-77
2023/08/24 12:13:46;;;;;;;5.22;2.83;;;29.30;30.90;;;;;;5045146;27;115101;-77
2023/08/24 12:16:14;;;;;;;4.70;2.88;;;29.30;31.30;;;;;;5045420;27;114517;-76
2023/08/24 12:18:52;;;;;;;5.15;2.90;;;29.10;32.30;;;;;;5046271;27;114189;-77
2023/08/24 12:21:22;;;;;;;4.55;3.20;;;29.00;31.10;;;;;;5047404;27;114594;-79
2023/08/24 12:24:01;;;;;;;5.60;3.10;;;28.90;30.90;;;;;;5047173;27;114869;-79
2023/08/24 12:26:29;;;;;;;5.32;3.33;;;28.90;31.50;;;;;;5048592;27;117298;-78
2023/08/24 12:29:00;;;;;;;6.70;3.10;;;28.80;31.90;;;;;;5049199;27;114174;-78
2023/08/24 12:31:30;;;;;;;5.82;2.97;;;28.80;33.00;;;;;;5049267;27;114323;-78
2023/08/24 12:34:08;;;;;;;5.40;3.30;;;28.80;32.10;;;;;;5046880;27;117776;-78
2023/08/24 12:36:37;;;;;;;5.65;3.03;;;28.80;31.70;;;;;;5048254;27;115167;-77
2023/08/24 12:39:05;;;;;;;7.55;3.22;;;28.80;31.80;;;;;;5049500;27;114146;-76